Aérodrome :
LOGIN :

S'inscrire | Disclaimer

   EN    FR    IT 

 










Légende :    VFR   VFR Marginal   IFR   IFR Intensif   IFR Très Intensif
Visi : 
Plafond : 
>= 8 km
>= 3000ft
5 à 8 km
1000 à 3000 ft
1500m à 5 km
500 à 1000 ft
800 à 1500m
200 à 500 ft
< 800m
< 200 ft
Symboles :   Orages  Brouillard  Fortes neiges  Fortes précipitations  Vent > 20 kt
SIGMETs :   Divers  Orages  Givrage  Turbulence  Onde Orograph.  Cendres Volcan.







- Altitude de l'aérodrome : 38 ft
- Code IATA : TRE
- Voir les cartes d'approche


EGPU - Tiree

DERNIER METAR :
  • 190950Z AUTO 32007KT 9999 BKN006/// 11/10 Q1009

METARs EXPIRÉS :
  • 190920Z AUTO 29009KT 200V260 9999 SCT006/// BKN030/// 11/10 Q1009
  • 190850Z AUTO 29008KT 9999 SCT005/// BKN017/// 11/10 Q1008
  • 190820Z AUTO 29008KT 9999 FEW006/// BKN018/// 11/10 Q1008
  • 190750Z AUTO 30007KT 9999 FEW005/// BKN018/// 11/10 Q1008
  • 190720Z AUTO 30006KT 210V270 9999 SCT004/// 10/10 Q1008

TAF TAF EGPU
Valide du 19 à 09h jusqu'au 19 à 18h UTC


190804Z 1909/1918 29008KT 9999 SCT018
TEMPO 1909/1913 4000 BR BKN004
TEMPO 1913/1918 6000 -RA BKN006
Pas de NOTAMs connus pour ce terrain.



MET'MAP, la Météo Aéronautique d'un coup d'oeil ! - Copyright ORBIFLY Décembre 2007 - Disclaimer

ORBIFLY MET'MAP TEAM :

Programmation & Développement : Alexandra Zaïnal
Conception & Développement : Baudouin d'Aumeries
Co-Programmation & Développement : Marc-Olivier Méhu
Soutien technique & logistique : Manuel Goepfert

Contact : metmap@orbifly.com




SOURCES & CREDITS :

   NOAA